sensor_id;sensor_type;location;lat;lon;timestamp;temperature;humidity
2565;DHT22;1292;48.020;7.822;2023-02-20T06:46:29;4.00;99.90
2565;DHT22;1292;48.020;7.822;2023-02-20T06:48:57;3.90;99.90
2565;DHT22;1292;48.020;7.822;2023-02-20T06:51:26;4.00;99.90
2565;DHT22;1292;48.020;7.822;2023-02-20T06:53:53;4.10;99.90
2565;DHT22;1292;48.020;7.822;2023-02-20T06:56:22;4.10;99.90
2565;DHT22;1292;48.020;7.822;2023-02-20T06:58:52;4.10;99.90
2565;DHT22;1292;48.020;7.822;2023-02-20T07:01:21;4.00;99.90
2565;DHT22;1292;48.020;7.822;2023-02-20T07:03:49;4.10;99.90
2565;DHT22;1292;48.020;7.822;2023-02-20T07:06:18;4.10;99.90
2565;DHT22;1292;48.020;7.822;2023-02-20T07:08:44;4.30;99.90
2565;DHT22;1292;48.020;7.822;2023-02-20T07:11:12;4.20;99.90
2565;DHT22;1292;48.020;7.822;2023-02-20T07:13:39;4.20;99.90
2565;DHT22;1292;48.020;7.822;2023-02-20T07:16:06;4.20;99.90
2565;DHT22;1292;48.020;7.822;2023-02-20T07:18:33;4.30;99.90
2565;DHT22;1292;48.020;7.822;2023-02-20T07:21:01;4.30;99.90
2565;DHT22;1292;48.020;7.822;2023-02-20T07:23:28;4.40;99.90
2565;DHT22;1292;48.020;7.822;2023-02-20T07:25:55;4.40;99.90
2565;DHT22;1292;48.020;7.822;2023-02-20T07:28:22;4.50;99.90
2565;DHT22;1292;48.020;7.822;2023-02-20T07:30:49;4.50;99.90
2565;DHT22;1292;48.020;7.822;2023-02-20T07:33:16;4.60;99.90
2565;DHT22;1292;48.020;7.822;2023-02-20T07:35:44;4.80;99.90
2565;DHT22;1292;48.020;7.822;2023-02-20T07:38:12;4.80;99.90
2565;DHT22;1292;48.020;7.822;2023-02-20T07:40:39;4.90;99.90
2565;DHT22;1292;48.020;7.822;2023-02-20T07:43:06;5.00;99.90
2565;DHT22;1292;48.020;7.822;2023-02-20T07:45:33;5.10;99.90
2565;DHT22;1292;48.020;7.822;2023-02-20T07:48:00;5.20;99.90
2565;DHT22;1292;48.020;7.822;2023-02-20T07:50:27;5.30;99.90
2565;DHT22;1292;48.020;7.822;2023-02-20T07:52:53;5.40;99.90
2565;DHT22;1292;48.020;7.822;2023-02-20T07:55:21;5.60;99.90
2565;DHT22;1292;48.020;7.822;2023-02-20T07:57:48;5.60;99.90
2565;DHT22;1292;48.020;7.822;2023-02-20T08:00:18;5.70;99.90
2565;DHT22;1292;48.020;7.822;2023-02-20T08:02:45;5.80;99.90
2565;DHT22;1292;48.020;7.822;2023-02-20T08:05:12;5.90;99.90
2565;DHT22;1292;48.020;7.822;2023-02-20T08:07:43;6.10;99.90
2565;DHT22;1292;48.020;7.822;2023-02-20T08:10:11;6.30;99.90
2565;DHT22;1292;48.020;7.822;2023-02-20T08:12:39;6.40;99.90
2565;DHT22;1292;48.020;7.822;2023-02-20T08:15:06;6.60;99.90
2565;DHT22;1292;48.020;7.822;2023-02-20T08:17:35;6.80;99.90
2565;DHT22;1292;48.020;7.822;2023-02-20T08:20:02;6.90;99.90
2565;DHT22;1292;48.020;7.822;2023-02-20T08:22:29;7.00;99.90
2565;DHT22;1292;48.020;7.822;2023-02-20T08:24:56;7.20;99.90
2565;DHT22;1292;48.020;7.822;2023-02-20T08:27:23;7.30;99.90
2565;DHT22;1292;48.020;7.822;2023-02-20T08:29:52;7.40;99.90
2565;DHT22;1292;48.020;7.822;2023-02-20T08:32:18;7.50;99.90
2565;DHT22;1292;48.020;7.822;2023-02-20T08:34:45;7.70;99.90
2565;DHT22;1292;48.020;7.822;2023-02-20T08:37:12;7.80;99.90
2565;DHT22;1292;48.020;7.822;2023-02-20T08:39:39;7.90;99.90
2565;DHT22;1292;48.020;7.822;2023-02-20T08:42:06;8.00;99.90
2565;DHT22;1292;48.020;7.822;2023-02-20T08:44:33;8.10;99.90
2565;DHT22;1292;48.020;7.822;2023-02-20T08:47:01;8.20;99.90
2565;DHT22;1292;48.020;7.822;2023-02-20T08:49:28;8.30;99.90
2565;DHT22;1292;48.020;7.822;2023-02-20T08:51:55;8.40;99.90
2565;DHT22;1292;48.020;7.822;2023-02-20T08:54:22;8.50;99.90
2565;DHT22;1292;48.020;7.822;2023-02-20T08:56:49;8.60;99.90
2565;DHT22;1292;48.020;7.822;2023-02-20T08:59:16;8.70;99.90
2565;DHT22;1292;48.020;7.822;2023-02-20T09:01:43;8.80;99.90
2565;DHT22;1292;48.020;7.822;2023-02-20T09:04:11;8.90;99.90
2565;DHT22;1292;48.020;7.822;2023-02-20T09:06:38;9.00;99.90
2565;DHT22;1292;48.020;7.822;2023-02-20T09:09:04;9.10;99.90
2565;DHT22;1292;48.020;7.822;2023-02-20T09:11:31;9.20;99.90
2565;DHT22;1292;48.020;7.822;2023-02-20T09:13:58;9.30;99.90
2565;DHT22;1292;48.020;7.822;2023-02-20T09:16:25;9.40;99.90
2565;DHT22;1292;48.020;7.822;2023-02-20T09:18:52;9.50;99.90
2565;DHT22;1292;48.020;7.822;2023-02-20T09:21:21;9.60;99.90
2565;DHT22;1292;48.020;7.822;2023-02-20T09:23:48;9.60;99.90
2565;DHT22;1292;48.020;7.822;2023-02-20T09:26:15;9.70;99.90
2565;DHT22;1292;48.020;7.822;2023-02-20T09:28:41;9.70;99.90
2565;DHT22;1292;48.020;7.822;2023-02-20T09:31:08;9.90;99.90
2565;DHT22;1292;48.020;7.822;2023-02-20T09:33:35;9.90;99.90
2565;DHT22;1292;48.020;7.822;2023-02-20T09:36:02;10.00;99.90
2565;DHT22;1292;48.020;7.822;2023-02-20T09:38:31;10.10;99.90
2565;DHT22;1292;48.020;7.822;2023-02-20T09:40:59;10.20;99.90
2565;DHT22;1292;48.020;7.822;2023-02-20T09:43:37;10.30;99.90
2565;DHT22;1292;48.020;7.822;2023-02-20T09:46:11;10.20;99.90
2565;DHT22;1292;48.020;7.822;2023-02-20T09:48:50;10.30;99.90
2565;DHT22;1292;48.020;7.822;2023-02-20T09:51:22;10.30;99.90
2565;DHT22;1292;48.020;7.822;2023-02-20T09:53:56;10.40;99.90
2565;DHT22;1292;48.020;7.822;2023-02-20T09:56:27;10.60;99.90
2565;DHT22;1292;48.020;7.822;2023-02-20T09:58:59;10.70;99.90
2565;DHT22;1292;48.020;7.822;2023-02-20T10:01:28;10.80;99.90
2565;DHT22;1292;48.020;7.822;2023-02-20T10:03:57;10.80;99.90
2565;DHT22;1292;48.020;7.822;2023-02-20T10:06:28;11.00;99.90
2565;DHT22;1292;48.020;7.822;2023-02-20T10:08:57;11.00;99.90
2565;DHT22;1292;48.020;7.822;2023-02-20T10:11:36;11.10;99.90
2565;DHT22;1292;48.020;7.822;2023-02-20T10:14:17;11.20;99.90
2565;DHT22;1292;48.020;7.822;2023-02-20T10:16:50;11.20;99.90
2565;DHT22;1292;48.020;7.822;2023-02-20T10:19:25;11.20;99.90
2565;DHT22;1292;48.020;7.822;2023-02-20T10:22:01;11.30;99.90
2565;DHT22;1292;48.020;7.822;2023-02-20T10:24:41;11.30;99.90
2565;DHT22;1292;48.020;7.822;2023-02-20T10:27:26;11.40;99.90
2565;DHT22;1292;48.020;7.822;2023-02-20T10:29:57;11.40;99.90
2565;DHT22;1292;48.020;7.822;2023-02-20T10:32:30;11.50;99.90
2565;DHT22;1292;48.020;7.822;2023-02-20T10:35:02;11.60;99.90
2565;DHT22;1292;48.020;7.822;2023-02-20T10:37:34;11.80;99.90
2565;DHT22;1292;48.020;7.822;2023-02-20T10:40:07;11.90;99.90
2565;DHT22;1292;48.020;7.822;2023-02-20T10:42:42;11.90;99.90
2565;DHT22;1292;48.020;7.822;2023-02-20T10:45:13;11.80;99.90
2565;DHT22;1292;48.020;7.822;2023-02-20T10:47:46;11.90;99.90
2565;DHT22;1292;48.020;7.822;2023-02-20T10:50:19;12.00;99.90
2565;DHT22;1292;48.020;7.822;2023-02-20T10:52:52;12.00;99.90
2565;DHT22;1292;48.020;7.822;2023-02-20T10:55:26;12.00;99.90
2565;DHT22;1292;48.020;7.822;2023-02-20T10:57:56;12.10;99.90
2565;DHT22;1292;48.020;7.822;2023-02-20T11:00:29;12.20;99.90
2565;DHT22;1292;48.020;7.822;2023-02-20T11:03:03;12.30;99.90
2565;DHT22;1292;48.020;7.822;2023-02-20T11:05:35;12.30;99.90
2565;DHT22;1292;48.020;7.822;2023-02-20T11:08:04;12.40;99.90
2565;DHT22;1292;48.020;7.822;2023-02-20T11:10:32;12.40;99.90
2565;DHT22;1292;48.020;7.822;2023-02-20T11:13:00;12.30;99.90
2565;DHT22;1292;48.020;7.822;2023-02-20T11:15:31;12.40;99.90
2565;DHT22;1292;48.020;7.822;2023-02-20T11:17:59;12.50;99.90
2565;DHT22;1292;48.020;7.822;2023-02-20T11:20:42;12.60;99.90
2565;DHT22;1292;48.020;7.822;2023-02-20T11:23:35;12.60;99.90
2565;DHT22;1292;48.020;7.822;2023-02-20T11:26:33;12.70;99.90
2565;DHT22;1292;48.020;7.822;2023-02-20T11:29:04;12.60;99.90
2565;DHT22;1292;48.020;7.822;2023-02-20T11:31:33;12.70;99.90
2565;DHT22;1292;48.020;7.822;2023-02-20T11:34:01;12.60;99.90
2565;DHT22;1292;48.020;7.822;2023-02-20T11:36:35;12.60;99.90
2565;DHT22;1292;48.020;7.822;2023-02-20T11:39:15;12.60;99.90
2565;DHT22;1292;48.020;7.822;2023-02-20T11:41:44;12.70;99.90
2565;DHT22;1292;48.020;7.822;2023-02-20T11:44:29;12.80;99.90
2565;DHT22;1292;48.020;7.822;2023-02-20T11:47:21;12.80;99.90
2565;DHT22;1292;48.020;7.822;2023-02-20T11:49:49;12.70;99.90
2565;DHT22;1292;48.020;7.822;2023-02-20T11:52:17;12.80;99.90
2565;DHT22;1292;48.020;7.822;2023-02-20T11:54:45;12.90;99.90
2565;DHT22;1292;48.020;7.822;2023-02-20T11:57:22;13.00;99.90
2565;DHT22;1292;48.020;7.822;2023-02-20T12:00:07;13.10;99.90
2565;DHT22;1292;48.020;7.822;2023-02-20T12:02:34;13.10;99.90
2565;DHT22;1292;48.020;7.822;2023-02-20T12:05:07;13.20;99.90
2565;DHT22;1292;48.020;7.822;2023-02-20T12:07:37;13.20;99.90
2565;DHT22;1292;48.020;7.822;2023-02-20T12:10:21;13.30;99.90
2565;DHT22;1292;48.020;7.822;2023-02-20T12:12:51;13.40;99.90
2565;DHT22;1292;48.020;7.822;2023-02-20T12:15:20;13.40;99.90
2565;DHT22;1292;48.020;7.822;2023-02-20T12:20:40;13.60;99.90
2565;DHT22;1292;48.020;7.822;2023-02-20T12:23:17;13.80;99.90
2565;DHT22;1292;48.020;7.822;2023-02-20T12:25:58;13.80;99.90
2565;DHT22;1292;48.020;7.822;2023-02-20T12:28:37;13.90;99.90
2565;DHT22;1292;48.020;7.822;2023-02-20T12:31:17;14.00;99.90
2565;DHT22;1292;48.020;7.822;2023-02-20T12:34:03;14.10;99.90
2565;DHT22;1292;48.020;7.822;2023-02-20T12:36:35;14.10;99.90
2565;DHT22;1292;48.020;7.822;2023-02-20T12:39:07;14.20;99.90
2565;DHT22;1292;48.020;7.822;2023-02-20T12:41:48;14.20;99.90
2565;DHT22;1292;48.020;7.822;2023-02-20T12:44:30;14.30;99.90
2565;DHT22;1292;48.020;7.822;2023-02-20T12:47:01;14.40;99.90
2565;DHT22;1292;48.020;7.822;2023-02-20T12:49:46;14.40;99.90
2565;DHT22;1292;48.020;7.822;2023-02-20T12:52:35;14.40;99.90
2565;DHT22;1292;48.020;7.822;2023-02-20T12:55:15;14.50;99.90
2565;DHT22;1292;48.020;7.822;2023-02-20T12:57:49;14.40;99.90
2565;DHT22;1292;48.020;7.822;2023-02-20T13:00:27;14.30;99.90
2565;DHT22;1292;48.020;7.822;2023-02-20T13:03:01;14.30;99.90
2565;DHT22;1292;48.020;7.822;2023-02-20T13:05:31;14.30;99.90
2565;DHT22;1292;48.020;7.822;2023-02-20T13:08:03;14.30;99.90
2565;DHT22;1292;48.020;7.822;2023-02-20T13:10:32;14.30;99.90
2565;DHT22;1292;48.020;7.822;2023-02-20T13:13:00;14.40;99.90
2565;DHT22;1292;48.020;7.822;2023-02-20T13:15:34;14.40;99.90
2565;DHT22;1292;48.020;7.822;2023-02-20T13:18:09;14.60;99.90
2565;DHT22;1292;48.020;7.822;2023-02-20T13:20:44;14.70;99.90
2565;DHT22;1292;48.020;7.822;2023-02-20T13:23:26;14.70;99.90
2565;DHT22;1292;48.020;7.822;2023-02-20T13:25:55;14.80;99.90
2565;DHT22;1292;48.020;7.822;2023-02-20T13:28:26;14.80;99.90
2565;DHT22;1292;48.020;7.822;2023-02-20T13:31:23;14.80;99.90
2565;DHT22;1292;48.020;7.822;2023-02-20T13:40:42;14.70;99.90
2565;DHT22;1292;48.020;7.822;2023-02-20T13:43:24;14.80;99.90
2565;DHT22;1292;48.020;7.822;2023-02-20T13:46:12;14.90;99.90
2565;DHT22;1292;48.020;7.822;2023-02-20T13:48:45;14.90;99.90
2565;DHT22;1292;48.020;7.822;2023-02-20T13:51:35;15.00;99.90
2565;DHT22;1292;48.020;7.822;2023-02-20T13:54:24;15.00;99.90
2565;DHT22;1292;48.020;7.822;2023-02-20T13:56:54;15.00;99.90
2565;DHT22;1292;48.020;7.822;2023-02-20T13:59:24;15.10;99.90
2565;DHT22;1292;48.020;7.822;2023-02-20T14:02:02;15.20;99.90
2565;DHT22;1292;48.020;7.822;2023-02-20T14:04:31;15.20;99.90
2565;DHT22;1292;48.020;7.822;2023-02-20T14:06:58;15.30;99.90
2565;DHT22;1292;48.020;7.822;2023-02-20T14:09:26;15.30;99.90
2565;DHT22;1292;48.020;7.822;2023-02-20T14:12:06;15.20;99.90
2565;DHT22;1292;48.020;7.822;2023-02-20T14:14:36;15.30;99.90
2565;DHT22;1292;48.020;7.822;2023-02-20T14:17:06;15.20;99.90
2565;DHT22;1292;48.020;7.822;2023-02-20T14:19:38;15.20;99.90
2565;DHT22;1292;48.020;7.822;2023-02-20T14:22:29;15.30;99.90
2565;DHT22;1292;48.020;7.822;2023-02-20T14:25:21;15.30;99.90
2565;DHT22;1292;48.020;7.822;2023-02-20T14:27:49;15.30;99.90
2565;DHT22;1292;48.020;7.822;2023-02-20T14:30:18;15.30;99.90
2565;DHT22;1292;48.020;7.822;2023-02-20T14:32:47;15.20;99.90
2565;DHT22;1292;48.020;7.822;2023-02-20T14:35:32;15.20;99.90
2565;DHT22;1292;48.020;7.822;2023-02-20T14:38:14;15.20;99.90
2565;DHT22;1292;48.020;7.822;2023-02-20T14:40:42;15.20;99.90
2565;DHT22;1292;48.020;7.822;2023-02-20T14:43:14;15.20;99.90
2565;DHT22;1292;48.020;7.822;2023-02-20T14:45:43;15.20;99.90
2565;DHT22;1292;48.020;7.822;2023-02-20T14:48:21;15.30;99.90
2565;DHT22;1292;48.020;7.822;2023-02-20T14:51:10;15.40;99.90
2565;DHT22;1292;48.020;7.822;2023-02-20T14:53:38;15.30;99.90
2565;DHT22;1292;48.020;7.822;2023-02-20T14:56:09;15.30;99.90
2565;DHT22;1292;48.020;7.822;2023-02-20T14:58:36;15.40;99.90
2565;DHT22;1292;48.020;7.822;2023-02-20T15:01:13;15.40;99.90
2565;DHT22;1292;48.020;7.822;2023-02-20T15:03:41;15.40;99.90
2565;DHT22;1292;48.020;7.822;2023-02-20T15:06:13;15.40;99.90
2565;DHT22;1292;48.020;7.822;2023-02-20T15:08:40;15.40;99.90
2565;DHT22;1292;48.020;7.822;2023-02-20T15:11:09;15.40;99.90
2565;DHT22;1292;48.020;7.822;2023-02-20T15:13:39;15.30;99.90
2565;DHT22;1292;48.020;7.822;2023-02-20T15:16:07;15.30;99.90
2565;DHT22;1292;48.020;7.822;2023-02-20T15:18:36;15.30;99.90
2565;DHT22;1292;48.020;7.822;2023-02-20T15:21:04;15.30;99.90
2565;DHT22;1292;48.020;7.822;2023-02-20T15:23:33;15.20;99.90
2565;DHT22;1292;48.020;7.822;2023-02-20T15:26:28;15.20;99.90
2565;DHT22;1292;48.020;7.822;2023-02-20T15:29:17;15.30;99.90
2565;DHT22;1292;48.020;7.822;2023-02-20T15:31:45;15.30;99.90
2565;DHT22;1292;48.020;7.822;2023-02-20T15:34:16;15.30;99.90
2565;DHT22;1292;48.020;7.822;2023-02-20T15:36:43;15.30;99.90
2565;DHT22;1292;48.020;7.822;2023-02-20T15:39:11;15.30;99.90
2565;DHT22;1292;48.020;7.822;2023-02-20T15:41:38;15.20;99.90
2565;DHT22;1292;48.020;7.822;2023-02-20T15:44:06;15.20;99.90
2565;DHT22;1292;48.020;7.822;2023-02-20T15:46:33;15.20;99.90
2565;DHT22;1292;48.020;7.822;2023-02-20T15:49:00;15.30;99.90
2565;DHT22;1292;48.020;7.822;2023-02-20T15:51:28;15.20;99.90
2565;DHT22;1292;48.020;7.822;2023-02-20T15:53:56;15.20;99.90
2565;DHT22;1292;48.020;7.822;2023-02-20T15:56:26;15.20;99.90
2565;DHT22;1292;48.020;7.822;2023-02-20T15:58:55;15.20;99.90
2565;DHT22;1292;48.020;7.822;2023-02-20T16:01:24;15.20;99.90
2565;DHT22;1292;48.020;7.822;2023-02-20T16:03:50;15.20;99.90
2565;DHT22;1292;48.020;7.822;2023-02-20T16:06:18;15.20;99.90
2565;DHT22;1292;48.020;7.822;2023-02-20T16:08:45;15.10;99.90
2565;DHT22;1292;48.020;7.822;2023-02-20T16:11:13;15.10;99.90
2565;DHT22;1292;48.020;7.822;2023-02-20T16:13:43;15.10;99.90
2565;DHT22;1292;48.020;7.822;2023-02-20T16:16:16;15.00;99.90
2565;DHT22;1292;48.020;7.822;2023-02-20T16:18:44;15.00;99.90
2565;DHT22;1292;48.020;7.822;2023-02-20T16:21:12;14.90;99.90
2565;DHT22;1292;48.020;7.822;2023-02-20T16:23:40;14.90;99.90
2565;DHT22;1292;48.020;7.822;2023-02-20T16:26:07;14.80;99.90
2565;DHT22;1292;48.020;7.822;2023-02-20T16:28:34;14.70;99.90
2565;DHT22;1292;48.020;7.822;2023-02-20T16:31:03;14.60;99.90
2565;DHT22;1292;48.020;7.822;2023-02-20T16:33:30;14.50;99.90
2565;DHT22;1292;48.020;7.822;2023-02-20T16:35:56;14.50;99.90
2565;DHT22;1292;48.020;7.822;2023-02-20T16:38:23;14.50;99.90
2565;DHT22;1292;48.020;7.822;2023-02-20T16:40:50;14.40;99.90
2565;DHT22;1292;48.020;7.822;2023-02-20T16:43:20;14.40;99.90
2565;DHT22;1292;48.020;7.822;2023-02-20T16:45:48;14.30;99.90
2565;DHT22;1292;48.020;7.822;2023-02-20T16:48:18;14.20;99.90
2565;DHT22;1292;48.020;7.822;2023-02-20T16:50:47;14.10;99.90
2565;DHT22;1292;48.020;7.822;2023-02-20T16:53:15;14.00;99.90
2565;DHT22;1292;48.020;7.822;2023-02-20T16:55:42;13.90;99.90
2565;DHT22;1292;48.020;7.822;2023-02-20T16:58:11;13.80;99.90
2565;DHT22;1292;48.020;7.822;2023-02-20T17:00:40;13.60;99.90
2565;DHT22;1292;48.020;7.822;2023-02-20T17:03:07;13.50;99.90
2565;DHT22;1292;48.020;7.822;2023-02-20T17:05:38;13.40;99.90
2565;DHT22;1292;48.020;7.822;2023-02-20T17:08:05;13.30;99.90
2565;DHT22;1292;48.020;7.822;2023-02-20T17:10:33;13.20;99.90
2565;DHT22;1292;48.020;7.822;2023-02-20T17:13:00;13.10;99.90
2565;DHT22;1292;48.020;7.822;2023-02-20T17:15:27;13.00;99.90
2565;DHT22;1292;48.020;7.822;2023-02-20T17:17:54;12.90;99.90
2565;DHT22;1292;48.020;7.822;2023-02-20T17:20:24;12.80;99.90
2565;DHT22;1292;48.020;7.822;2023-02-20T17:22:53;12.70;99.90
2565;DHT22;1292;48.020;7.822;2023-02-20T17:25:22;12.60;99.90
2565;DHT22;1292;48.020;7.822;2023-02-20T17:27:49;12.50;99.90
2565;DHT22;1292;48.020;7.822;2023-02-20T17:30:19;12.40;99.90
2565;DHT22;1292;48.020;7.822;2023-02-20T17:32:46;12.30;99.90
2565;DHT22;1292;48.020;7.822;2023-02-20T17:35:13;12.20;99.90
2565;DHT22;1292;48.020;7.822;2023-02-20T17:37:40;12.10;99.90
2565;DHT22;1292;48.020;7.822;2023-02-20T17:40:10;12.00;99.90
2565;DHT22;1292;48.020;7.822;2023-02-20T17:42:37;11.90;99.90
2565;DHT22;1292;48.020;7.822;2023-02-20T17:45:05;11.90;99.90
2565;DHT22;1292;48.020;7.822;2023-02-20T17:47:31;11.80;99.90
2565;DHT22;1292;48.020;7.822;2023-02-20T17:49:58;11.80;99.90
2565;DHT22;1292;48.020;7.822;2023-02-20T17:52:25;11.80;99.90
2565;DHT22;1292;48.020;7.822;2023-02-20T17:54:52;11.70;99.90
2565;DHT22;1292;48.020;7.822;2023-02-20T17:57:21;11.60;99.90
2565;DHT22;1292;48.020;7.822;2023-02-20T17:59:49;11.60;99.90
2565;DHT22;1292;48.020;7.822;2023-02-20T18:02:17;11.60;99.90
2565;DHT22;1292;48.020;7.822;2023-02-20T18:04:44;11.50;99.90
2565;DHT22;1292;48.020;7.822;2023-02-20T18:07:13;11.40;99.90
2565;DHT22;1292;48.020;7.822;2023-02-20T18:09:41;11.30;99.90
2565;DHT22;1292;48.020;7.822;2023-02-20T18:12:08;11.30;99.90
2565;DHT22;1292;48.020;7.822;2023-02-20T18:14:36;11.20;99.90
2565;DHT22;1292;48.020;7.822;2023-02-20T18:17:03;11.20;99.90
2565;DHT22;1292;48.020;7.822;2023-02-20T18:19:30;11.10;99.90
2565;DHT22;1292;48.020;7.822;2023-02-20T18:21:57;11.00;99.90
2565;DHT22;1292;48.020;7.822;2023-02-20T18:24:24;11.00;99.90
2565;DHT22;1292;48.020;7.822;2023-02-20T18:26:52;10.80;99.90
2565;DHT22;1292;48.020;7.822;2023-02-20T18:29:19;10.80;99.90
2565;DHT22;1292;48.020;7.822;2023-02-20T18:31:48;10.70;99.90
2565;DHT22;1292;48.020;7.822;2023-02-20T18:34:16;10.60;99.90
2565;DHT22;1292;48.020;7.822;2023-02-20T18:36:43;10.60;99.90
2565;DHT22;1292;48.020;7.822;2023-02-20T18:39:10;10.50;99.90
2565;DHT22;1292;48.020;7.822;2023-02-20T18:41:38;10.40;99.90
2565;DHT22;1292;48.020;7.822;2023-02-20T18:44:06;10.30;99.90
2565;DHT22;1292;48.020;7.822;2023-02-20T18:46:34;10.30;99.90
2565;DHT22;1292;48.020;7.822;2023-02-20T18:49:03;10.20;99.90
2565;DHT22;1292;48.020;7.822;2023-02-20T18:51:32;10.20;99.90
2565;DHT22;1292;48.020;7.822;2023-02-20T18:53:59;10.10;99.90
2565;DHT22;1292;48.020;7.822;2023-02-20T18:56:25;10.10;99.90
2565;DHT22;1292;48.020;7.822;2023-02-20T18:58:53;10.10;99.90
2565;DHT22;1292;48.020;7.822;2023-02-20T19:01:21;10.10;99.90
2565;DHT22;1292;48.020;7.822;2023-02-20T19:03:49;10.00;99.90
2565;DHT22;1292;48.020;7.822;2023-02-20T19:06:26;10.00;99.90
2565;DHT22;1292;48.020;7.822;2023-02-20T19:08:53;10.00;99.90
2565;DHT22;1292;48.020;7.822;2023-02-20T19:11:20;10.00;99.90
2565;DHT22;1292;48.020;7.822;2023-02-20T19:13:47;10.00;99.90
2565;DHT22;1292;48.020;7.822;2023-02-20T19:16:14;10.00;99.90
2565;DHT22;1292;48.020;7.822;2023-02-20T19:18:41;10.10;99.90
2565;DHT22;1292;48.020;7.822;2023-02-20T19:21:09;10.10;99.90
2565;DHT22;1292;48.020;7.822;2023-02-20T19:23:38;10.00;99.90
2565;DHT22;1292;48.020;7.822;2023-02-20T19:26:06;10.00;99.90
2565;DHT22;1292;48.020;7.822;2023-02-20T19:28:33;10.00;99.90
2565;DHT22;1292;48.020;7.822;2023-02-20T19:30:59;10.00;99.90
2565;DHT22;1292;48.020;7.822;2023-02-20T19:33:26;9.90;99.90
2565;DHT22;1292;48.020;7.822;2023-02-20T19:35:53;9.90;99.90
2565;DHT22;1292;48.020;7.822;2023-02-20T19:38:21;9.90;99.90
2565;DHT22;1292;48.020;7.822;2023-02-20T19:40:49;9.70;99.90
2565;DHT22;1292;48.020;7.822;2023-02-20T19:43:16;9.70;99.90
2565;DHT22;1292;48.020;7.822;2023-02-20T19:45:43;9.60;99.90
2565;DHT22;1292;48.020;7.822;2023-02-20T19:48:12;9.60;99.90
2565;DHT22;1292;48.020;7.822;2023-02-20T19:50:39;9.60;99.90
2565;DHT22;1292;48.020;7.822;2023-02-20T19:53:06;9.50;99.90
2565;DHT22;1292;48.020;7.822;2023-02-20T19:55:33;9.40;99.90
2565;DHT22;1292;48.020;7.822;2023-02-20T19:58:01;9.40;99.90
2565;DHT22;1292;48.020;7.822;2023-02-20T20:00:28;9.30;99.90
2565;DHT22;1292;48.020;7.822;2023-02-20T20:02:55;9.30;99.90
2565;DHT22;1292;48.020;7.822;2023-02-20T20:05:23;9.30;99.90
2565;DHT22;1292;48.020;7.822;2023-02-20T20:07:50;9.20;99.90
2565;DHT22;1292;48.020;7.822;2023-02-20T20:10:18;9.10;99.90
2565;DHT22;1292;48.020;7.822;2023-02-20T20:12:44;9.10;99.90
2565;DHT22;1292;48.020;7.822;2023-02-20T20:15:17;9.10;99.90
2565;DHT22;1292;48.020;7.822;2023-02-20T20:17:44;9.00;99.90
2565;DHT22;1292;48.020;7.822;2023-02-20T20:20:12;9.00;99.90
2565;DHT22;1292;48.020;7.822;2023-02-20T20:22:39;8.90;99.90
2565;DHT22;1292;48.020;7.822;2023-02-20T20:25:07;8.90;99.90
2565;DHT22;1292;48.020;7.822;2023-02-20T20:27:35;8.80;99.90
2565;DHT22;1292;48.020;7.822;2023-02-20T20:30:03;8.80;99.90
2565;DHT22;1292;48.020;7.822;2023-02-20T20:32:31;8.70;99.90
2565;DHT22;1292;48.020;7.822;2023-02-20T20:34:58;8.70;99.90
2565;DHT22;1292;48.020;7.822;2023-02-20T20:37:25;8.70;99.90
2565;DHT22;1292;48.020;7.822;2023-02-20T20:39:54;8.60;99.90
2565;DHT22;1292;48.020;7.822;2023-02-20T20:42:23;8.60;99.90
2565;DHT22;1292;48.020;7.822;2023-02-20T20:44:50;8.50;99.90
2565;DHT22;1292;48.020;7.822;2023-02-20T20:47:17;8.50;99.90
2565;DHT22;1292;48.020;7.822;2023-02-20T20:49:46;8.40;99.90
2565;DHT22;1292;48.020;7.822;2023-02-20T20:52:13;8.30;99.90
2565;DHT22;1292;48.020;7.822;2023-02-20T20:54:40;8.30;99.90
2565;DHT22;1292;48.020;7.822;2023-02-20T20:57:07;8.10;99.90
2565;DHT22;1292;48.020;7.822;2023-02-20T20:59:34;8.00;99.90
2565;DHT22;1292;48.020;7.822;2023-02-20T21:02:00;7.90;99.90
2565;DHT22;1292;48.020;7.822;2023-02-20T21:04:27;7.90;99.90
2565;DHT22;1292;48.020;7.822;2023-02-20T21:06:55;7.80;99.90
2565;DHT22;1292;48.020;7.822;2023-02-20T21:09:22;7.70;99.90
2565;DHT22;1292;48.020;7.822;2023-02-20T21:11:49;7.60;99.90
2565;DHT22;1292;48.020;7.822;2023-02-20T21:14:16;7.40;99.90
2565;DHT22;1292;48.020;7.822;2023-02-20T21:16:43;7.30;99.90
2565;DHT22;1292;48.020;7.822;2023-02-20T21:19:10;7.20;99.90
2565;DHT22;1292;48.020;7.822;2023-02-20T21:21:37;7.20;99.90
2565;DHT22;1292;48.020;7.822;2023-02-20T21:24:06;7.20;99.90
2565;DHT22;1292;48.020;7.822;2023-02-20T21:26:33;7.20;99.90
2565;DHT22;1292;48.020;7.822;2023-02-20T21:29:02;7.20;99.90
2565;DHT22;1292;48.020;7.822;2023-02-20T21:31:29;7.20;99.90
2565;DHT22;1292;48.020;7.822;2023-02-20T21:33:56;7.10;99.90
2565;DHT22;1292;48.020;7.822;2023-02-20T21:36:23;7.10;99.90
2565;DHT22;1292;48.020;7.822;2023-02-20T21:38:50;7.10;99.90
2565;DHT22;1292;48.020;7.822;2023-02-20T21:41:19;7.00;99.90
2565;DHT22;1292;48.020;7.822;2023-02-20T21:44:00;7.00;99.90
2565;DHT22;1292;48.020;7.822;2023-02-20T21:46:44;6.90;99.90
2565;DHT22;1292;48.020;7.822;2023-02-20T21:49:11;7.00;99.90
2565;DHT22;1292;48.020;7.822;2023-02-20T21:51:38;6.90;99.90
2565;DHT22;1292;48.020;7.822;2023-02-20T21:54:04;6.80;99.90
2565;DHT22;1292;48.020;7.822;2023-02-20T21:56:32;6.80;99.90
2565;DHT22;1292;48.020;7.822;2023-02-20T21:58:59;6.80;99.90
